Japan Airlines Virtual Airport Information Service

Hanamaki Airport

ICAO: RJSI Country: Japan
Latitude: 39.4286 Longitude: 141.135
Latest Arrival : JAL2839 (RJCC-RJSI) Latest Departure : JAL3526 (RJSI-RJFF)


WX CaptureLIVE
Data provided by noaa.gov | Fetched at 13:14:08

METAR : RJSI 230900Z 19017G27KT CAVOK 14/03 Q1020

TAF : RJSI 231110Z 2312/2418 22005KT 9999 FEW020 BECMG 2315/2317 02005KT BECMG 2400/2403 19012KT BECMG 2412/2415 02004KT


Runway Data for RJSI
Data provided by openaviationdata.com

Runway ID Mag Var Hdg Length Elevation Surface ILS Freq ILS Id ILS Slope
2 -8 18° 6567 ft 295 ft Asphalt -- -- --
20 -8 198° 6567 ft 295 ft Asphalt 109.3 IHP 3

Hanamaki Airport, Japan
Use only for reference purposes



Not for navigational purposes.